This is the latest recevied weather packets stored in our database for station/object W1ERB-13. If no packets are shown the sender has not sent any weather packets the latest 1 day(s).
| Time | Temp. | Humidity | Pressure | Rain* | Wind** | Luminosity | Snow |
|---|---|---|---|---|---|---|---|
| 1778012286 | 23.89° C | 51% | 1007.4 hPa | 0 mm | 1.79 m/s, 203° | 440 W/m² | - |
| 1778011983 | 23.33° C | 52% | 1007.6 hPa | 0 mm | 1.34 m/s, 250° | 459 W/m² | - |
| 1778011681 | 23.33° C | 52% | 1007.6 hPa | 0 mm | 1.34 m/s, 212° | 474 W/m² | - |
| 1778011378 | 23.33° C | 53% | 1007.7 hPa | 0 mm | 1.79 m/s, 211° | 479 W/m² | - |
| 1778011073 | 23.89° C | 52% | 1008.1 hPa | 0 mm | 1.79 m/s, 151° | 494 W/m² | - |
| 1778010771 | 23.89° C | 52% | 1007.8 hPa | 0 mm | 1.34 m/s, 234° | 519 W/m² | - |
| 1778010468 | 25° C | 50% | 1007.6 hPa | 0 mm | 1.79 m/s, 129° | 524 W/m² | - |
| 1778010165 | 24.44° C | 53% | 1007.7 hPa | 0 mm | 0.45 m/s, 142° | 508 W/m² | - |
| 1778009860 | 24.44° C | 51% | 1008.1 hPa | 0 mm | 4.02 m/s, 193° | 567 W/m² | - |
| 1778009558 | 24.44° C | 50% | 1007.6 hPa | 0 mm | 4.02 m/s, 167° | 574 W/m² | - |
| 1778009256 | 23.89° C | 52% | 1007.8 hPa | 0 mm | 1.79 m/s, 226° | 572 W/m² | - |
| 1778008954 | 23.89° C | 52% | 1007.9 hPa | 0 mm | 1.34 m/s, 223° | 600 W/m² | - |
| 1778008652 | 25° C | 52% | 1008 hPa | 0 mm | 3.13 m/s, 184° | 610 W/m² | - |
| 1778008350 | 23.89° C | 52% | 1008 hPa | 0 mm | 1.34 m/s, 221° | 619 W/m² | - |
| 1778008046 | 23.89° C | 51% | 1008.3 hPa | 0 mm | 3.13 m/s, 185° | 634 W/m² | - |
| 1778007745 | 25° C | 50% | 1008.2 hPa | 0 mm | 1.79 m/s, 256° | 623 W/m² | - |
| 1778007442 | 23.89° C | 51% | 1008 hPa | 0 mm | 1.34 m/s, 175° | 619 W/m² | - |
| 1778007139 | 24.44° C | 53% | 1008 hPa | 0 mm | 1.34 m/s, 221° | 652 W/m² | - |
| 1778006834 | 25° C | 50% | 1008.1 hPa | 0 mm | 2.68 m/s, 147° | 662 W/m² | - |
| 1778006533 | 25.56° C | 48% | 1008.2 hPa | 0 mm | 2.68 m/s, 207° | 666 W/m² | - |
| 1778006229 | 25° C | 48% | 1008.3 hPa | 0 mm | 1.79 m/s, 230° | 657 W/m² | - |
| 1778005927 | 24.44° C | 50% | 1008 hPa | 0 mm | 2.24 m/s, 281° | 665 W/m² | - |
| 1778005622 | 24.44° C | 51% | 1008.4 hPa | 0 mm | 1.79 m/s, 242° | 675 W/m² | - |
| 1778005320 | 24.44° C | 49% | 1008.3 hPa | 0 mm | 2.68 m/s, 117° | 683 W/m² | - |
| 1778005016 | 25° C | 49% | 1008.4 hPa | 0 mm | 1.79 m/s, 227° | 688 W/m² | - |
* Rain latest hour (hover to see other rain measurements)
** Current wind speed in m/s (hover to see current wind gust speed)